createdAt,value
2023-01-30T10:31:18.907Z,95269.00
2023-01-30T10:32:18.731Z,95271.00
2023-01-30T10:33:18.702Z,95263.00
2023-01-30T10:34:18.678Z,95259.00
2023-01-30T10:35:18.670Z,95255.00
2023-01-30T10:36:18.709Z,95251.00
2023-01-30T10:37:18.658Z,95249.00
2023-01-30T10:38:18.667Z,95238.00
2023-01-30T10:39:18.680Z,95230.00
2023-01-30T10:40:19.002Z,95230.00
2023-01-30T10:41:18.666Z,95228.00
2023-01-30T10:42:18.635Z,95230.00
2023-01-30T10:43:18.635Z,95230.00
2023-01-30T10:44:18.618Z,95230.00
2023-01-30T10:45:18.573Z,95224.00
2023-01-30T10:46:18.567Z,95228.00
2023-01-30T10:47:18.576Z,95222.00
2023-01-30T10:48:18.589Z,95216.00
2023-01-30T10:49:18.586Z,95216.00
2023-01-30T10:50:18.998Z,95210.00
2023-01-30T10:51:18.559Z,95210.00
2023-01-30T10:52:18.572Z,95204.00
2023-01-30T10:53:18.569Z,95208.00
2023-01-30T10:54:19.845Z,95204.00
2023-01-30T10:55:28.142Z,95206.00
2023-01-30T10:56:19.501Z,95204.00
2023-01-30T10:57:22.293Z,95208.00
2023-01-30T10:58:18.501Z,95210.00
2023-01-30T10:59:18.503Z,95204.00
2023-01-30T11:00:18.723Z,95198.00
2023-01-30T11:01:18.457Z,95204.00
2023-01-30T11:02:18.463Z,95196.00
2023-01-30T11:03:20.310Z,95187.00
2023-01-30T11:04:18.446Z,95189.00
2023-01-30T11:05:18.773Z,95191.00
2023-01-30T11:06:18.445Z,95187.00
2023-01-30T11:07:18.444Z,95179.00
2023-01-30T11:08:18.409Z,95169.00
2023-01-30T11:09:18.413Z,95163.00
2023-01-30T11:10:18.417Z,95165.00
2023-01-30T11:11:18.453Z,95167.00
2023-01-30T11:12:18.400Z,95167.00
2023-01-30T11:13:18.370Z,95161.00
2023-01-30T11:14:18.364Z,95157.00
2023-01-30T11:15:18.620Z,95147.00
2023-01-30T11:16:18.442Z,95146.00
2023-01-30T11:17:18.333Z,95142.00
2023-01-30T11:19:17.767Z,95140.00
2023-01-30T11:19:21.553Z,95138.00
2023-01-30T11:20:18.624Z,95136.00
2023-01-30T11:21:18.342Z,95130.00
2023-01-30T11:22:18.304Z,95126.00
2023-01-30T11:23:18.298Z,95128.00
2023-01-30T11:24:18.316Z,95122.00
2023-01-30T11:25:18.599Z,95120.00
2023-01-30T11:26:18.293Z,95128.00
2023-01-30T11:27:18.349Z,95144.00
2023-01-30T11:28:18.290Z,95142.00
2023-01-30T11:29:18.286Z,95126.00
2023-01-30T11:30:18.497Z,95122.00
2023-01-30T11:31:19.759Z,95118.00
2023-01-30T11:32:19.315Z,95124.00
2023-01-30T11:33:18.227Z,95122.00
2023-01-30T11:34:18.246Z,95124.00
2023-01-30T11:35:18.294Z,95120.00
2023-01-30T11:36:18.189Z,95116.00
2023-01-30T11:37:18.169Z,95112.00
2023-01-30T11:38:18.190Z,95112.00
2023-01-30T11:39:18.167Z,95106.00
2023-01-30T11:40:18.768Z,95106.00
2023-01-30T11:41:18.209Z,95102.00
2023-01-30T11:42:18.143Z,95106.00
2023-01-30T11:43:18.133Z,95102.00
2023-01-30T11:44:18.141Z,95106.00
2023-01-30T11:45:18.621Z,95106.00
2023-01-30T11:46:18.135Z,95100.00
2023-01-30T11:47:18.125Z,95093.00
2023-01-30T11:48:33.281Z,95091.00
2023-01-30T11:49:48.247Z,95095.00
2023-01-30T11:50:20.184Z,95093.00
2023-01-30T11:51:18.088Z,95097.00
2023-01-30T11:52:18.068Z,95106.00
2023-01-30T11:53:18.090Z,95102.00
2023-01-30T11:54:18.116Z,95102.00
2023-01-30T11:55:19.089Z,95102.00
2023-01-30T11:56:18.202Z,95104.00
2023-01-30T11:57:19.002Z,95100.00
2023-01-30T12:01:25.625Z,95077.00
2023-01-30T12:02:25.735Z,95079.00
2023-01-30T12:03:26.166Z,95069.00
2023-01-30T12:04:25.592Z,95061.00
2023-01-30T12:05:25.547Z,95059.00
2023-01-30T12:06:33.299Z,95059.00
2023-01-30T12:07:33.277Z,95065.00
2023-01-30T12:08:40.668Z,95048.00
2023-01-30T12:09:26.534Z,95036.00
2023-01-30T12:10:25.545Z,95034.00
2023-01-30T12:11:25.556Z,95034.00
2023-01-30T12:12:26.151Z,95038.00
2023-01-30T12:13:25.559Z,95036.00
2023-01-30T12:14:25.512Z,95036.00
2023-01-30T12:15:25.521Z,95032.00
2023-01-30T12:16:25.512Z,95038.00
2023-01-30T12:17:25.502Z,95036.00
2023-01-30T12:18:25.492Z,95034.00
2023-01-30T12:19:25.461Z,95028.00
2023-01-30T12:20:25.450Z,95022.00
2023-01-30T12:21:25.449Z,95024.00
2023-01-30T12:22:25.432Z,95028.00
2023-01-30T12:23:25.469Z,95024.00
2023-01-30T12:24:25.443Z,95022.00
2023-01-30T12:25:25.492Z,95024.00
2023-01-30T12:26:25.408Z,95026.00
2023-01-30T12:27:25.450Z,95022.00
2023-01-30T12:28:25.366Z,95022.00
2023-01-30T12:29:25.368Z,95024.00
2023-01-30T12:30:25.393Z,95024.00
2023-01-30T12:31:25.358Z,95024.00
2023-01-30T12:32:25.329Z,95018.00
2023-01-30T12:33:26.248Z,95010.00
2023-01-30T12:34:27.219Z,95006.00
2023-01-30T12:35:25.337Z,95010.00
2023-01-30T12:36:25.418Z,95010.00
2023-01-30T12:37:25.313Z,95003.00
2023-01-30T12:38:25.328Z,95005.00
2023-01-30T12:39:25.287Z,95008.00
2023-01-30T12:40:26.298Z,95005.00
2023-01-30T12:41:25.320Z,95005.00
2023-01-30T12:42:25.899Z,95008.00
2023-01-30T12:43:25.269Z,95012.00
2023-01-30T12:44:25.270Z,95016.00
2023-01-30T12:45:25.372Z,95012.00
2023-01-30T12:46:25.297Z,95008.00
2023-01-30T12:47:25.280Z,95008.00
2023-01-30T12:48:25.226Z,95001.00
2023-01-30T12:49:25.234Z,94999.00
2023-01-30T12:50:25.247Z,94997.00
2023-01-30T12:51:25.176Z,94997.00
2023-01-30T12:52:25.175Z,94997.00
2023-01-30T12:53:25.220Z,94999.00
2023-01-30T12:54:25.237Z,95001.00
2023-01-30T12:55:25.156Z,94997.00
2023-01-30T12:56:25.148Z,94995.00
2023-01-30T12:57:25.132Z,94991.00
2023-01-30T12:58:25.109Z,94993.00
2023-01-30T12:59:25.133Z,94993.00
2023-01-30T13:00:25.207Z,94985.00
2023-01-30T13:01:25.248Z,94985.00
2023-01-30T13:02:26.496Z,94995.00
2023-01-30T13:03:25.094Z,94991.00
2023-01-30T13:04:25.102Z,94989.00
2023-01-30T13:05:25.094Z,94993.00
2023-01-30T13:06:25.074Z,94993.00
2023-01-30T13:07:25.102Z,94993.00
2023-01-30T13:08:25.073Z,94985.00
2023-01-30T13:09:25.036Z,94975.00
2023-01-30T13:10:25.057Z,94971.00
2023-01-30T13:11:25.053Z,94969.00
2023-01-30T13:12:25.045Z,94969.00
2023-01-30T13:13:25.059Z,94969.00
2023-01-30T13:14:25.046Z,94969.00
2023-01-30T13:15:24.995Z,94966.00
2023-01-30T13:16:25.013Z,94960.00
2023-01-30T13:17:25.010Z,94962.00
2023-01-30T13:18:24.964Z,94958.00
2023-01-30T13:19:25.480Z,94956.00
2023-01-30T13:20:24.992Z,94952.00
2023-01-30T13:21:24.977Z,94948.00
2023-01-30T13:22:25.678Z,94956.00
2023-01-30T13:23:24.941Z,94950.00
2023-01-30T13:24:24.958Z,94946.00
2023-01-30T13:25:24.907Z,94944.00
2023-01-30T13:26:25.027Z,94946.00
2023-01-30T13:27:24.940Z,94946.00
2023-01-30T13:28:26.066Z,94948.00
2023-01-30T13:29:24.902Z,94946.00
2023-01-30T13:30:24.913Z,94948.00
2023-01-30T13:31:25.062Z,94944.00
2023-01-30T13:32:24.974Z,94942.00
2023-01-30T13:33:24.864Z,94934.00
2023-01-30T13:34:24.910Z,94932.00
2023-01-30T13:35:24.839Z,94932.00
2023-01-30T13:36:24.858Z,94938.00
2023-01-30T13:37:24.904Z,94948.00
2023-01-30T13:38:24.846Z,94950.00
2023-01-30T13:39:24.846Z,94944.00
2023-01-30T13:40:25.024Z,94946.00
2023-01-30T13:41:24.814Z,94952.00
2023-01-30T13:42:24.817Z,94946.00
2023-01-30T13:43:24.792Z,94942.00
2023-01-30T13:44:24.794Z,94936.00
2023-01-30T13:45:24.906Z,94930.00
2023-01-30T13:46:24.804Z,94936.00
2023-01-30T13:47:24.881Z,94940.00
2023-01-30T13:48:24.828Z,94938.00
2023-01-30T13:49:24.726Z,94934.00
2023-01-30T13:50:24.705Z,94924.00
2023-01-30T13:51:24.735Z,94922.00
2023-01-30T13:52:24.740Z,94926.00
2023-01-30T13:53:24.752Z,94942.00
2023-01-30T13:54:24.699Z,94946.00
2023-01-30T13:55:24.748Z,94944.00
2023-01-30T13:56:40.668Z,94934.00
2023-01-30T13:57:25.752Z,94926.00
2023-01-30T13:58:25.275Z,94926.00
2023-01-30T13:59:24.624Z,94936.00
2023-01-30T14:00:24.674Z,94942.00
2023-01-30T14:01:24.710Z,94940.00
2023-01-30T14:02:24.707Z,94936.00
2023-01-30T14:03:24.616Z,94938.00
2023-01-30T14:04:24.629Z,94938.00
2023-01-30T14:05:31.803Z,94934.00
2023-01-30T14:06:25.594Z,94946.00
2023-01-30T14:07:24.586Z,94948.00
2023-01-30T14:08:24.598Z,94950.00
2023-01-30T14:09:24.571Z,94954.00
2023-01-30T14:10:24.662Z,94962.00
2023-01-30T14:11:24.540Z,94967.00
2023-01-30T14:12:24.555Z,94966.00
2023-01-30T14:13:24.533Z,94958.00
2023-01-30T14:14:24.538Z,94952.00
2023-01-30T14:15:25.197Z,94954.00
2023-01-30T14:16:24.567Z,94948.00
2023-01-30T14:17:24.512Z,94946.00
2023-01-30T14:18:24.512Z,94946.00
2023-01-30T14:19:25.686Z,94950.00
2023-01-30T14:20:24.516Z,94954.00
2023-01-30T14:21:24.534Z,94962.00
2023-01-30T14:22:24.482Z,94964.00
2023-01-30T14:23:24.452Z,94966.00
2023-01-30T14:24:24.420Z,94967.00
2023-01-30T14:25:24.452Z,94966.00
2023-01-30T14:26:24.464Z,94964.00
2023-01-30T14:27:24.465Z,94964.00
